Pensacola, FL

10:17 PM CDT on May 23, 2015 (GMT -0500)
Pensacola Regional | | Change Station
CLOSE
Current Station
Airport
Location: Pensacola,
Elevation: 118 ft
Nearby Weather Stations
Active Advisory: Coastal Hazard Statement

Elev 118 ft 30.48 °N, 87.19 °W | Updated 24 minutes ago

Clear
Clear
77 °F
Feels Like 77 °F
N
6
Wind Variable Wind from ESE

Today
High -- | Low -- °F
--% Chance of Precip.
Yesterday
High -- | Low -- °F
Precip. -- in
5:50 AM 7:41 PM
Waxing Crescent, 35% visible
Pressure 30.18 in
Visibility 10.0 miles
Clouds Clear
Dew Point 71 °F
Humidity 82%
Rainfall 0.00 in
Snow Depth Not available.
UV 0 out of 12
Pollen 5.80 out of 12
Air Quality Not available.
Flu Activity Sporadic
METAR KPNS 240253Z AUTO 12005KT 10SM CLR 25/22 A3017 RMK AO2 SLP219 T02500217 53006

More Conditions Fewer Conditions

Pressure 30.18 in
Visibility 10.0 miles
Clouds Clear
Dew Point 71 °F
Humidity 82%
Rainfall 0.00 in
Snow Depth Not available.
UV 0 out of 12
Pollen 5.80 out of 12
Air Quality Not available.
Flu Activity Sporadic
METAR KPNS 240253Z AUTO 12005KT 10SM CLR 25/22 A3017 RMK AO2 SLP219 T02500217 53006

More Conditions Fewer Conditions

10-Day Weather Forecast

Almanac

Astronomy

May. 23, 2015 Rise Set
Actual Time
Civil Twilight
Nautical Twilight
Astronomical Twilight
Moon
Length of Visible Light
Length of Day
Tomorrow will be .
, % of the Moon is Illuminated

Today's Extremes

State Highs State Lows

Community

WunderPhotos

Upload Photos

1,823,673 photos uploaded!

WunderBlogs® & News

Nearby

Air Quality

  Air Quality AQ Index Pollutant
Not available.

Snow Depth

Station Depth Elevation

Earthquake Activity

City Distance Mag. Time & Date
Minimum magnitude displayed is 2.5.

Coastal Water Temperatures

Place Temperature

Stations

Nearby Weather Stations

Station Location Temp. Windchill Dew Point Humidity Wind Precip. Elev Updated Type
                   
Coastal Hazard Statement
Statement as of 10:08 PM CDT on May 23, 2015

... High rip current risk remains in effect from 7 am CDT Sunday
through Tuesday afternoon...

* timing... from Sunday morning through Tuesday afternoon.

* Impacts... frequent life-threatening rip currents are expected.
The surf will be dangerous for all levels of swimmers.

Precautionary/preparedness actions...

There is a high risk of rip currents.

Rip currents are life-threatening to anyone entering the surf. If
you become caught in a rip current... Yell and wave your arms for
help and remain calm. Do not exhaust yourself and stay afloat
while waiting for help. If you have to swim out of a rip
current... swim parallel to shore and back toward the beach when
possible. Do not attempt to swim directly against a rip current
as you will tire quickly.